Airport View

Enter AWOS ICAO identifier for current METAR.

ex. KFNL

KCBE 202250Z AUTO 00000KT 10SM CLR 21/14 A3022 RMK AO2 T02130139

20 Oct 2020 22:53

Frequency: 128.625

Phone: 304-738-0451

Other Area AWOS: K2G4 - K2G9 - KHMZ - KMRB

TAF KMRB 201721Z 2018/2118 18003KT P6SM SCT150 FM210000 VRB03KT P6SM FEW200 FM211300 18004KT P6SM SCT250